Time;durP1;ratioP1;P1;durP2;ratioP2;P2;SDS_P1;SDS_P2;PMS_P1;PMS_P2;Temp;Humidity;BMP_temperature;BMP_pressure;BME280_temperature;BME280_humidity;BME280_pressure;Samples;Min_cycle;Max_cycle;Signal;HPM_P1;HPM_P2
2023/03/03 00:00:13;;;;;;;32.00;16.53;;;3.50;96.00;;;;;;5062042;28;20124;-82
2023/03/03 00:02:38;;;;;;;30.20;15.17;;;3.50;95.90;;;;;;5095785;28;20054;-83
2023/03/03 00:05:05;;;;;;;31.33;16.13;;;3.40;95.90;;;;;;5094084;28;20530;-82
2023/03/03 00:07:30;;;;;;;33.83;15.90;;;3.40;96.00;;;;;;5060588;28;20115;-82
2023/03/03 00:09:56;;;;;;;34.57;17.20;;;3.50;96.30;;;;;;5094518;28;20146;-82
2023/03/03 00:12:26;;;;;;;36.27;17.27;;;3.40;96.80;;;;;;5093961;28;20028;-82
2023/03/03 00:14:52;;;;;;;35.80;17.70;;;3.40;96.70;;;;;;5094941;28;20483;-82
2023/03/03 00:17:29;;;;;;;36.77;17.00;;;3.40;97.00;;;;;;5094297;28;20126;-82
2023/03/03 00:19:55;;;;;;;36.20;17.93;;;3.40;96.60;;;;;;5094860;28;20094;-82
2023/03/03 00:22:41;;;;;;;38.70;20.00;;;3.30;97.30;;;;;;5093908;28;20016;-83
2023/03/03 00:25:29;;;;;;;35.27;17.57;;;3.30;97.30;;;;;;5093672;28;20484;-82
2023/03/03 00:27:55;;;;;;;35.70;17.97;;;3.40;97.50;;;;;;5095113;28;20099;-82
2023/03/03 00:30:26;;;;;;;33.47;16.67;;;3.30;97.50;;;;;;5093840;28;20016;-83
2023/03/03 00:32:53;;;;;;;37.50;17.70;;;3.40;97.20;;;;;;5095063;28;20028;-82
2023/03/03 00:35:23;;;;;;;31.77;16.63;;;3.30;97.50;;;;;;5095043;28;20050;-82
2023/03/03 00:37:58;;;;;;;36.43;17.30;;;3.30;97.10;;;;;;5095095;28;20399;-81
2023/03/03 00:40:34;;;;;;;40.97;18.20;;;3.30;97.30;;;;;;5093472;28;20047;-82
2023/03/03 00:43:11;;;;;;;35.13;18.03;;;3.30;97.80;;;;;;5093455;28;20016;-82
2023/03/03 00:45:45;;;;;;;38.63;19.03;;;3.30;97.90;;;;;;5087524;28;20060;-82
2023/03/03 00:48:25;;;;;;;40.50;19.67;;;3.30;97.70;;;;;;5073481;28;20021;-82
2023/03/03 00:50:59;;;;;;;36.27;18.47;;;3.30;97.80;;;;;;5072693;28;20120;-81
2023/03/03 00:53:29;;;;;;;27.70;14.32;;;3.30;97.60;;;;;;5073152;28;20541;-83
2023/03/03 00:55:56;;;;;;;38.97;19.20;;;3.30;97.60;;;;;;5074230;28;20048;-82
2023/03/03 00:58:23;;;;;;;41.90;19.57;;;3.30;98.00;;;;;;5072655;28;20068;-83
2023/03/03 01:00:51;;;;;;;37.63;18.53;;;3.30;98.00;;;;;;5073037;28;20025;-83
2023/03/03 01:03:20;;;;;;;36.90;17.87;;;3.30;97.70;;;;;;5056727;28;20103;-82
2023/03/03 01:05:47;;;;;;;37.47;18.00;;;3.30;97.70;;;;;;5073083;28;20108;-83
2023/03/03 01:08:13;;;;;;;33.77;16.63;;;3.30;97.40;;;;;;5072988;28;20040;-83
2023/03/03 01:10:49;;;;;;;32.30;17.13;;;3.30;97.40;;;;;;5072730;28;20024;-82
2023/03/03 01:13:15;;;;;;;31.17;16.30;;;3.30;97.50;;;;;;5073003;28;20103;-83
2023/03/03 01:15:42;;;;;;;32.27;16.73;;;3.30;97.90;;;;;;5072920;28;20021;-82
2023/03/03 01:18:09;;;;;;;33.70;16.70;;;3.30;97.80;;;;;;5074078;28;20043;-83
2023/03/03 01:20:35;;;;;;;30.90;15.30;;;3.30;97.70;;;;;;5072512;28;20024;-82
2023/03/03 01:23:01;;;;;;;35.47;17.03;;;3.30;98.30;;;;;;5055876;28;20029;-83
2023/03/03 01:25:27;;;;;;;32.20;17.00;;;3.20;98.30;;;;;;5073833;28;20024;-83
2023/03/03 01:27:52;;;;;;;32.10;15.67;;;3.30;98.50;;;;;;5054904;28;20074;-82
2023/03/03 01:30:18;;;;;;;30.67;15.07;;;3.20;98.40;;;;;;5039428;28;20029;-82
2023/03/03 01:32:44;;;;;;;30.57;14.57;;;3.10;98.50;;;;;;5072451;28;20028;-83
2023/03/03 01:35:10;;;;;;;27.70;14.37;;;3.10;98.40;;;;;;5055608;28;20361;-83
2023/03/03 01:37:36;;;;;;;30.33;13.90;;;3.10;98.50;;;;;;5072042;28;20044;-83
2023/03/03 01:40:04;;;;;;;30.70;14.83;;;3.10;98.30;;;;;;5072357;28;20039;-82
2023/03/03 01:42:30;;;;;;;30.53;14.23;;;3.00;98.50;;;;;;5072562;28;20106;-82
2023/03/03 01:45:24;;;;;;;31.03;14.93;;;3.00;98.70;;;;;;5039586;28;20352;-83
2023/03/03 01:48:03;;;;;;;29.33;14.95;;;3.10;98.50;;;;;;5073402;28;20029;-83
2023/03/03 01:51:01;;;;;;;31.87;16.37;;;3.10;98.90;;;;;;5073022;28;20031;-82
2023/03/03 01:53:42;;;;;;;31.70;15.43;;;3.00;98.80;;;;;;5072247;28;20017;-83
2023/03/03 01:56:09;;;;;;;36.00;16.30;;;3.00;98.90;;;;;;5071892;28;20732;-82
2023/03/03 01:58:48;;;;;;;32.40;16.20;;;3.10;98.90;;;;;;5073148;28;20396;-82
2023/03/03 02:01:19;;;;;;;32.37;15.03;;;3.00;98.90;;;;;;5080783;28;20031;-81
2023/03/03 02:03:44;;;;;;;30.17;15.03;;;3.00;98.80;;;;;;5088405;28;20021;-81
2023/03/03 02:06:17;;;;;;;33.60;16.53;;;3.10;98.80;;;;;;5071306;28;20025;-82
2023/03/03 02:09:02;;;;;;;35.20;16.87;;;3.00;98.80;;;;;;5071923;28;20043;-82
2023/03/03 02:11:31;;;;;;;37.93;17.80;;;3.00;98.90;;;;;;5071983;28;20065;-82
2023/03/03 02:13:57;;;;;;;34.60;17.20;;;3.10;99.10;;;;;;5072736;28;20495;-82
2023/03/03 02:16:22;;;;;;;33.83;16.03;;;3.20;99.20;;;;;;5071609;28;20044;-82
2023/03/03 02:18:48;;;;;;;31.73;15.13;;;3.00;99.00;;;;;;5071842;28;20112;-82
2023/03/03 02:21:20;;;;;;;28.60;15.40;;;3.10;99.20;;;;;;5072106;28;20027;-82
2023/03/03 02:23:58;;;;;;;32.60;15.43;;;3.10;99.10;;;;;;5071917;28;20063;-82
2023/03/03 02:26:26;;;;;;;33.37;16.30;;;3.10;99.10;;;;;;5071361;28;20031;-82
2023/03/03 02:28:52;;;;;;;35.03;17.03;;;3.10;99.20;;;;;;5071673;28;20480;-82
2023/03/03 02:31:21;;;;;;;31.67;15.67;;;3.20;99.00;;;;;;5071626;28;20500;-82
2023/03/03 02:33:49;;;;;;;33.27;16.70;;;3.10;98.90;;;;;;5071826;28;20029;-81
2023/03/03 02:36:19;;;;;;;30.50;15.37;;;3.20;99.00;;;;;;5071662;28;20032;-82
2023/03/03 02:39:07;;;;;;;31.33;14.83;;;3.20;99.00;;;;;;5075473;28;20033;-82
2023/03/03 02:41:45;;;;;;;33.57;15.67;;;3.20;98.90;;;;;;5075824;28;20503;-82
2023/03/03 02:44:14;;;;;;;30.53;13.93;;;3.20;99.00;;;;;;5075776;28;20025;-82
2023/03/03 02:46:42;;;;;;;28.57;14.63;;;3.20;98.90;;;;;;5059093;28;20029;-81
2023/03/03 02:49:10;;;;;;;30.33;14.33;;;3.20;99.00;;;;;;5076883;28;20055;-82
2023/03/03 02:51:36;;;;;;;36.90;16.63;;;3.30;98.90;;;;;;5075595;28;20472;-82
2023/03/03 02:54:03;;;;;;;32.73;16.20;;;3.20;99.10;;;;;;5075635;28;20028;-82
2023/03/03 02:56:28;;;;;;;31.83;15.93;;;3.20;99.20;;;;;;5058609;28;20488;-82
2023/03/03 02:58:55;;;;;;;33.43;16.03;;;3.20;99.30;;;;;;5076545;28;20059;-82
2023/03/03 03:01:21;;;;;;;29.17;15.03;;;3.20;99.40;;;;;;5076531;28;20548;-82
2023/03/03 03:03:47;;;;;;;29.43;14.57;;;3.20;99.20;;;;;;5075381;28;20024;-82
2023/03/03 03:06:12;;;;;;;30.17;14.57;;;3.20;99.10;;;;;;5041932;28;20040;-82
2023/03/03 03:08:38;;;;;;;28.77;14.23;;;3.20;99.10;;;;;;5076266;28;20025;-82
2023/03/03 03:11:04;;;;;;;30.73;14.90;;;3.10;99.20;;;;;;5074987;28;20493;-83
2023/03/03 03:13:31;;;;;;;32.43;14.73;;;3.10;99.30;;;;;;5074912;28;20429;-82
2023/03/03 03:15:58;;;;;;;32.00;14.03;;;3.20;99.20;;;;;;5075291;28;20727;-83
2023/03/03 03:18:24;;;;;;;27.00;12.57;;;3.00;99.00;;;;;;5075010;28;20058;-83
2023/03/03 03:20:50;;;;;;;29.27;13.93;;;3.10;98.80;;;;;;5076689;28;20025;-82
2023/03/03 03:23:16;;;;;;;31.40;14.90;;;3.20;98.80;;;;;;5074980;28;20464;-83
2023/03/03 03:25:45;;;;;;;27.50;13.53;;;3.20;98.70;;;;;;5074849;28;20698;-83
2023/03/03 03:28:15;;;;;;;31.60;14.33;;;3.20;98.60;;;;;;5074743;28;20047;-83
2023/03/03 03:30:42;;;;;;;34.57;14.83;;;3.30;98.90;;;;;;5074858;28;20514;-83
2023/03/03 03:33:09;;;;;;;29.67;14.13;;;3.30;98.80;;;;;;5058439;28;20082;-83
2023/03/03 03:35:35;;;;;;;30.93;14.80;;;3.30;98.70;;;;;;5075870;28;20035;-84
2023/03/03 03:38:01;;;;;;;31.63;15.43;;;3.30;98.60;;;;;;5074540;28;20438;-83
2023/03/03 03:40:27;;;;;;;31.80;15.20;;;3.30;98.80;;;;;;5074871;28;20433;-83
2023/03/03 03:42:53;;;;;;;34.90;16.17;;;3.40;98.80;;;;;;5075459;28;20108;-82
2023/03/03 03:45:19;;;;;;;37.27;16.00;;;3.30;98.80;;;;;;5073319;28;20070;-81
2023/03/03 03:47:45;;;;;;;34.30;15.67;;;3.30;98.70;;;;;;5073102;28;20060;-82
2023/03/03 03:50:11;;;;;;;32.13;14.20;;;3.40;98.80;;;;;;5073615;28;20081;-83
2023/03/03 03:52:37;;;;;;;31.17;15.50;;;3.30;98.80;;;;;;5073963;28;20020;-82
2023/03/03 03:55:04;;;;;;;39.57;17.70;;;3.30;98.90;;;;;;5074452;28;20488;-82
2023/03/03 03:57:30;;;;;;;34.73;15.93;;;3.30;99.00;;;;;;5074036;28;20099;-82
2023/03/03 03:59:56;;;;;;;40.93;19.53;;;3.40;99.20;;;;;;5074390;28;20052;-81
2023/03/03 04:02:22;;;;;;;40.53;18.33;;;3.30;99.10;;;;;;5057721;28;20020;-82
2023/03/03 04:04:47;;;;;;;39.30;18.13;;;3.30;99.40;;;;;;5057856;28;20085;-83
2023/03/03 04:07:13;;;;;;;39.73;18.60;;;3.30;99.30;;;;;;5075505;28;20075;-82
2023/03/03 04:09:39;;;;;;;38.60;16.77;;;3.30;99.50;;;;;;5074480;28;20029;-83
2023/03/03 04:12:04;;;;;;;39.70;18.07;;;3.30;99.50;;;;;;5057251;28;20024;-82
2023/03/03 04:14:30;;;;;;;40.17;18.07;;;3.30;99.50;;;;;;5073711;28;20056;-81
2023/03/03 04:16:56;;;;;;;37.40;18.50;;;3.30;99.40;;;;;;5057050;28;20036;-81
2023/03/03 04:19:22;;;;;;;32.67;15.77;;;3.30;99.10;;;;;;5057388;28;20464;-81
2023/03/03 04:21:48;;;;;;;37.07;18.30;;;3.30;99.00;;;;;;5057078;28;20548;-82
2023/03/03 04:24:13;;;;;;;42.63;18.33;;;3.30;99.10;;;;;;5074042;28;20061;-82
2023/03/03 04:26:39;;;;;;;40.17;17.40;;;3.40;99.20;;;;;;5057084;28;20115;-82
2023/03/03 04:29:05;;;;;;;39.03;17.37;;;3.40;99.00;;;;;;5057000;28;20028;-82
2023/03/03 04:31:30;;;;;;;42.50;19.27;;;3.40;98.90;;;;;;5056954;28;20033;-82
2023/03/03 04:33:56;;;;;;;40.90;17.77;;;3.40;99.00;;;;;;5073547;28;20025;-83
2023/03/03 04:36:22;;;;;;;40.47;17.77;;;3.30;98.90;;;;;;5056776;28;20048;-82
2023/03/03 04:38:48;;;;;;;43.33;19.13;;;3.40;98.90;;;;;;5073227;28;20033;-82
2023/03/03 04:41:14;;;;;;;42.70;19.23;;;3.40;98.90;;;;;;5075174;28;20037;-83
2023/03/03 04:43:39;;;;;;;42.60;17.17;;;3.40;99.00;;;;;;5056851;28;20545;-82
2023/03/03 04:46:05;;;;;;;44.60;19.80;;;3.30;99.00;;;;;;5056819;28;20164;-82
2023/03/03 04:48:31;;;;;;;38.47;17.90;;;3.30;99.10;;;;;;5073691;28;20384;-82
2023/03/03 04:50:56;;;;;;;34.37;15.17;;;3.30;99.10;;;;;;5072910;28;20479;-82
2023/03/03 04:53:22;;;;;;;40.57;17.00;;;3.30;98.90;;;;;;5073076;28;20029;-82
2023/03/03 04:55:52;;;;;;;45.03;18.43;;;3.30;99.20;;;;;;5056841;28;20472;-82
2023/03/03 04:58:18;;;;;;;39.67;18.83;;;3.30;99.20;;;;;;5056739;28;20044;-82
2023/03/03 05:00:46;;;;;;;44.27;18.97;;;3.30;99.20;;;;;;5074017;28;20052;-83
2023/03/03 05:03:12;;;;;;;41.20;17.90;;;3.30;99.30;;;;;;5039890;28;20024;-83
2023/03/03 05:05:39;;;;;;;43.50;19.03;;;3.30;99.30;;;;;;5072696;28;20426;-83
2023/03/03 05:08:05;;;;;;;41.53;17.87;;;3.30;99.00;;;;;;5072817;28;20163;-83
2023/03/03 05:10:30;;;;;;;44.33;18.50;;;3.30;99.20;;;;;;5072777;28;20067;-82
2023/03/03 05:12:56;;;;;;;37.67;17.17;;;3.30;99.30;;;;;;5055946;28;20028;-82
2023/03/03 05:15:22;;;;;;;39.90;17.03;;;3.30;99.10;;;;;;5039602;28;20056;-81
2023/03/03 05:17:47;;;;;;;42.13;17.47;;;3.40;99.00;;;;;;5073887;28;20039;-83
2023/03/03 05:20:13;;;;;;;36.63;17.20;;;3.40;99.10;;;;;;5073804;28;20051;-83
2023/03/03 05:22:39;;;;;;;40.53;17.83;;;3.40;99.10;;;;;;5072484;28;20024;-83
2023/03/03 05:25:05;;;;;;;42.17;19.07;;;3.40;99.10;;;;;;5039570;28;20094;-82
2023/03/03 05:27:31;;;;;;;38.13;17.87;;;3.40;99.00;;;;;;5072416;28;20039;-82
2023/03/03 05:29:56;;;;;;;40.13;17.50;;;3.40;99.00;;;;;;5072458;28;20025;-82
2023/03/03 05:32:22;;;;;;;38.03;17.93;;;3.40;98.90;;;;;;5072515;28;20111;-82
2023/03/03 05:34:48;;;;;;;44.00;19.00;;;3.40;99.20;;;;;;5055893;28;20029;-82
2023/03/03 05:37:14;;;;;;;46.67;19.40;;;3.40;99.20;;;;;;5059820;28;20037;-82
2023/03/03 05:39:40;;;;;;;45.33;18.57;;;3.50;99.20;;;;;;5058001;28;20032;-81
2023/03/03 05:42:06;;;;;;;38.33;17.43;;;3.50;99.20;;;;;;5094799;28;20467;-82
2023/03/03 05:44:31;;;;;;;35.50;16.83;;;3.40;99.40;;;;;;5075659;28;20035;-81
2023/03/03 05:46:57;;;;;;;36.90;15.50;;;3.40;99.60;;;;;;5058808;28;20118;-82
2023/03/03 05:49:24;;;;;;;37.50;16.17;;;3.40;99.20;;;;;;5092370;28;20472;-82
2023/03/03 05:51:50;;;;;;;39.50;16.83;;;3.40;99.30;;;;;;5092707;28;20028;-81
2023/03/03 05:54:15;;;;;;;30.40;14.63;;;3.40;99.30;;;;;;5092911;28;20103;-82
2023/03/03 05:56:41;;;;;;;30.40;13.33;;;3.30;99.40;;;;;;5058947;28;20537;-82
2023/03/03 05:59:07;;;;;;;28.07;13.47;;;3.30;99.40;;;;;;5074866;28;20480;-82
2023/03/03 06:01:32;;;;;;;30.13;14.20;;;3.30;99.90;;;;;;5092204;28;20088;-81
2023/03/03 06:03:58;;;;;;;29.10;12.77;;;3.30;99.60;;;;;;5075577;28;20157;-81
2023/03/03 06:06:24;;;;;;;29.47;13.83;;;3.30;99.80;;;;;;5076742;28;20467;-81
2023/03/03 06:08:49;;;;;;;29.47;11.83;;;3.30;99.90;;;;;;5095406;28;20424;-82
2023/03/03 06:11:17;;;;;;;29.63;13.60;;;3.20;99.90;;;;;;5112816;28;20070;-82
2023/03/03 06:13:43;;;;;;;28.53;12.33;;;3.20;99.90;;;;;;5095343;28;20116;-81
2023/03/03 06:16:08;;;;;;;26.23;11.73;;;3.20;99.90;;;;;;5095367;28;20055;-82
2023/03/03 06:18:34;;;;;;;27.27;11.63;;;3.20;99.80;;;;;;5086814;28;20028;-82
2023/03/03 06:20:59;;;;;;;27.77;12.57;;;3.20;99.80;;;;;;5092453;28;20576;-82
2023/03/03 06:23:25;;;;;;;27.40;12.47;;;3.20;99.80;;;;;;5074778;28;20036;-82
2023/03/03 06:25:52;;;;;;;33.17;13.70;;;3.20;99.90;;;;;;5091851;28;20031;-82
2023/03/03 06:28:18;;;;;;;29.67;14.27;;;3.30;99.90;;;;;;5057901;28;20119;-82
2023/03/03 06:30:44;;;;;;;31.60;13.40;;;3.30;99.90;;;;;;5093059;28;20030;-81
2023/03/03 06:33:10;;;;;;;31.13;13.00;;;3.30;99.90;;;;;;5109610;28;20028;-82
2023/03/03 06:35:36;;;;;;;30.53;13.27;;;3.30;99.90;;;;;;5108882;28;20024;-82
2023/03/03 06:38:02;;;;;;;31.33;12.87;;;3.30;99.90;;;;;;5097976;28;20042;-81
2023/03/03 06:40:28;;;;;;;36.43;13.83;;;3.30;99.90;;;;;;5091504;28;20036;-82
2023/03/03 06:42:54;;;;;;;35.27;14.53;;;3.30;99.90;;;;;;5072040;28;20039;-82
2023/03/03 06:45:19;;;;;;;27.00;13.17;;;3.30;99.90;;;;;;5086504;28;20058;-82
2023/03/03 06:47:45;;;;;;;26.60;12.27;;;3.30;99.90;;;;;;5096277;28;20477;-82
2023/03/03 06:50:11;;;;;;;33.37;13.03;;;3.30;99.90;;;;;;5111833;28;20071;-82
2023/03/03 06:52:38;;;;;;;33.83;14.50;;;3.30;99.90;;;;;;5058228;28;20036;-82
2023/03/03 06:55:12;;;;;;;31.93;14.07;;;3.30;99.90;;;;;;5091530;28;20036;-82
2023/03/03 06:57:38;;;;;;;31.03;14.03;;;3.30;99.90;;;;;;5092202;28;20043;-82
2023/03/03 07:00:16;;;;;;;27.30;12.73;;;3.50;99.90;;;;;;5103619;28;20040;-82
2023/03/03 07:02:42;;;;;;;30.37;13.33;;;3.30;99.90;;;;;;5101878;28;20028;-82
2023/03/03 07:05:16;;;;;;;32.57;13.73;;;3.40;99.90;;;;;;5101532;28;20107;-82
2023/03/03 07:07:42;;;;;;;;;;;3.40;99.90;;;;;;5101815;28;20028;-82
2023/03/03 07:10:28;;;;;;;26.50;12.27;;;3.50;99.90;;;;;;5101416;28;19911;-82
2023/03/03 07:12:57;;;;;;;28.27;13.17;;;3.40;99.90;;;;;;5100468;28;20024;-82
2023/03/03 07:15:28;;;;;;;29.23;11.90;;;3.40;99.90;;;;;;5101831;28;20024;-82
2023/03/03 07:17:58;;;;;;;23.13;10.10;;;3.50;99.90;;;;;;5091745;28;20039;-82
2023/03/03 07:20:34;;;;;;;26.83;12.53;;;3.60;99.90;;;;;;5091711;28;20048;-82
2023/03/03 07:23:00;;;;;;;22.33;10.07;;;3.50;99.90;;;;;;5092337;28;20400;-82
2023/03/03 07:25:34;;;;;;;24.10;10.77;;;3.50;99.90;;;;;;5092521;28;20039;-82
2023/03/03 07:28:31;;;;;;;26.67;10.13;;;3.50;99.90;;;;;;5078163;28;20115;-82
2023/03/03 07:30:57;;;;;;;21.60;9.23;;;3.50;99.90;;;;;;5102185;28;20024;-82
2023/03/03 07:33:27;;;;;;;20.93;8.53;;;3.60;99.90;;;;;;5086406;28;20020;-82
2023/03/03 07:35:55;;;;;;;21.23;8.53;;;3.60;99.90;;;;;;5099718;28;20028;-82
2023/03/03 07:38:35;;;;;;;18.70;8.43;;;3.60;99.90;;;;;;5094630;28;20031;-81
2023/03/03 07:41:09;;;;;;;18.40;6.93;;;3.60;99.90;;;;;;5094460;28;20051;-82
2023/03/03 07:43:37;;;;;;;17.40;7.07;;;3.70;99.90;;;;;;5094898;28;20081;-82
2023/03/03 07:46:29;;;;;;;16.70;6.63;;;3.70;99.90;;;;;;5102022;28;20449;-82
2023/03/03 07:48:56;;;;;;;12.77;5.90;;;3.80;99.90;;;;;;5115023;28;20023;-82
2023/03/03 07:51:33;;;;;;;14.93;5.90;;;3.80;99.90;;;;;;5112556;28;20050;-82
2023/03/03 07:54:27;;;;;;;16.10;6.60;;;3.90;99.90;;;;;;5094299;28;20035;-82
2023/03/03 07:57:00;;;;;;;16.00;6.97;;;3.90;99.90;;;;;;5100851;28;20043;-83
2023/03/03 07:59:26;;;;;;;15.13;5.70;;;3.90;99.90;;;;;;5094625;28;20048;-84
2023/03/03 08:01:55;;;;;;;15.80;5.93;;;3.90;99.90;;;;;;5094747;28;20035;-84
2023/03/03 08:04:23;;;;;;;15.13;6.00;;;4.00;99.90;;;;;;5107061;28;20027;-83
2023/03/03 08:06:59;;;;;;;14.00;5.77;;;3.90;99.90;;;;;;5114236;28;20118;-83
2023/03/03 08:09:38;;;;;;;17.50;6.57;;;4.00;99.90;;;;;;5102974;28;20115;-83
2023/03/03 08:12:19;;;;;;;18.40;6.70;;;4.10;99.90;;;;;;5091701;28;20039;-83
2023/03/03 08:14:46;;;;;;;15.60;6.23;;;4.20;99.90;;;;;;5094414;28;20055;-83
2023/03/03 08:17:32;;;;;;;13.07;5.40;;;4.20;99.90;;;;;;5096718;28;20680;-83
2023/03/03 08:19:58;;;;;;;17.33;6.90;;;4.20;99.90;;;;;;5102702;28;20028;-83
2023/03/03 08:22:36;;;;;;;12.63;5.90;;;4.30;99.90;;;;;;5105330;28;20031;-83
2023/03/03 08:25:02;;;;;;;14.80;6.63;;;4.30;99.90;;;;;;5112184;28;20020;-83
2023/03/03 08:27:27;;;;;;;14.33;6.00;;;4.40;99.90;;;;;;5113831;28;20023;-84
2023/03/03 08:29:53;;;;;;;14.77;5.80;;;4.40;99.90;;;;;;5114146;28;20157;-83
2023/03/03 08:32:19;;;;;;;15.53;6.20;;;4.50;99.90;;;;;;5097374;28;20379;-84
2023/03/03 08:34:44;;;;;;;16.63;6.80;;;4.50;99.90;;;;;;5114418;28;20089;-83
2023/03/03 08:37:10;;;;;;;14.00;5.60;;;4.50;99.90;;;;;;5096513;28;20101;-83
2023/03/03 08:39:36;;;;;;;14.83;6.10;;;4.60;99.90;;;;;;5097380;28;20031;-84
2023/03/03 08:42:01;;;;;;;14.20;6.17;;;4.60;99.90;;;;;;5096847;28;20024;-82
2023/03/03 08:44:27;;;;;;;14.40;5.67;;;4.60;99.90;;;;;;5096926;28;20543;-82
2023/03/03 08:46:52;;;;;;;11.07;4.87;;;4.60;99.80;;;;;;5113869;28;20028;-82
2023/03/03 08:49:18;;;;;;;13.97;5.63;;;4.70;99.60;;;;;;5113519;28;20422;-82
2023/03/03 08:51:44;;;;;;;13.70;4.43;;;4.70;99.40;;;;;;5097213;28;20020;-83
2023/03/03 08:54:10;;;;;;;12.43;4.97;;;4.70;99.30;;;;;;5096999;28;20061;-83
2023/03/03 08:56:35;;;;;;;14.57;6.67;;;4.60;99.20;;;;;;5113506;28;21012;-82
2023/03/03 08:59:01;;;;;;;14.30;5.73;;;4.80;99.30;;;;;;5096206;28;20055;-82
2023/03/03 09:01:27;;;;;;;11.77;5.63;;;4.70;99.30;;;;;;5113520;28;20028;-83
2023/03/03 09:03:52;;;;;;;12.87;5.80;;;4.80;99.20;;;;;;5092999;28;20023;-83
2023/03/03 09:06:18;;;;;;;11.90;5.27;;;4.90;99.20;;;;;;5112623;28;20042;-83
2023/03/03 09:08:44;;;;;;;11.97;4.70;;;4.90;99.00;;;;;;5075964;28;20081;-83
2023/03/03 09:11:12;;;;;;;12.57;5.97;;;5.00;98.80;;;;;;5093443;28;20066;-83
2023/03/03 09:13:38;;;;;;;16.60;6.30;;;5.00;98.60;;;;;;5092825;28;20044;-83
2023/03/03 09:16:14;;;;;;;12.33;5.70;;;5.00;98.40;;;;;;5092858;28;20024;-83
2023/03/03 09:18:41;;;;;;;13.30;5.90;;;5.00;98.30;;;;;;5093434;28;20066;-83
2023/03/03 09:21:31;;;;;;;15.43;6.23;;;5.10;97.80;;;;;;5076366;28;20023;-83
2023/03/03 09:23:58;;;;;;;14.13;6.07;;;5.10;97.70;;;;;;5092711;28;20042;-83
2023/03/03 09:26:29;;;;;;;13.53;5.47;;;5.20;97.60;;;;;;5092978;28;20024;-83
2023/03/03 09:29:14;;;;;;;13.07;5.87;;;5.20;97.50;;;;;;5092383;28;20049;-83
2023/03/03 09:31:53;;;;;;;13.67;5.27;;;5.30;97.60;;;;;;5093977;28;20020;-84
2023/03/03 09:34:41;;;;;;;12.90;5.73;;;5.50;97.40;;;;;;5092025;28;20028;-83
2023/03/03 09:37:26;;;;;;;12.13;5.23;;;5.60;96.90;;;;;;5093201;28;20078;-83
2023/03/03 09:39:54;;;;;;;10.43;4.07;;;5.70;96.60;;;;;;5094026;28;20020;-82
2023/03/03 09:42:41;;;;;;;12.27;5.10;;;5.80;96.50;;;;;;5075595;28;20029;-83
2023/03/03 09:45:33;;;;;;;11.63;4.30;;;5.90;96.30;;;;;;5092445;28;20024;-83
2023/03/03 09:48:35;;;;;;;9.53;3.83;;;6.10;96.50;;;;;;5061635;28;20089;-83
2023/03/03 09:51:26;;;;;;;10.10;4.17;;;6.40;96.70;;;;;;5079672;28;20485;-84
2023/03/03 09:54:14;;;;;;;9.73;4.33;;;6.70;96.50;;;;;;5085364;28;20028;-83
2023/03/03 09:56:45;;;;;;;9.37;3.97;;;6.90;95.90;;;;;;5092085;28;20036;-83
2023/03/03 09:59:26;;;;;;;9.10;4.30;;;7.10;95.90;;;;;;5091537;28;20071;-83
2023/03/03 10:02:04;;;;;;;6.40;3.20;;;7.30;95.40;;;;;;5092348;28;20395;-83
2023/03/03 10:04:48;;;;;;;9.60;4.23;;;7.50;94.50;;;;;;5092318;28;20361;-84
2023/03/03 10:07:32;;;;;;;7.38;3.53;;;7.70;93.00;;;;;;5098252;28;20027;-84
2023/03/03 10:10:04;;;;;;;;;;;7.90;92.40;;;;;;5096079;28;20495;-83
2023/03/03 10:12:56;;;;;;;8.73;3.13;;;8.10;91.80;;;;;;5092267;28;19904;-83
2023/03/03 10:15:34;;;;;;;9.33;3.37;;;8.20;91.40;;;;;;5093282;28;20058;-82
2023/03/03 10:18:11;;;;;;;6.73;2.97;;;8.20;91.10;;;;;;5093337;28;20476;-84
2023/03/03 10:20:52;;;;;;;7.53;3.00;;;8.40;91.60;;;;;;5091978;28;20036;-84
2023/03/03 10:23:37;;;;;;;5.77;2.33;;;8.70;91.90;;;;;;5094386;28;20027;-83
2023/03/03 10:26:23;;;;;;;3.92;1.70;;;9.40;92.60;;;;;;5109437;28;20106;-83
2023/03/03 10:29:10;;;;;;;5.90;2.30;;;10.30;93.30;;;;;;5104633;28;20111;-82
2023/03/03 10:31:54;;;;;;;6.00;1.58;;;11.20;92.90;;;;;;5095269;28;20028;-83
2023/03/03 10:34:52;;;;;;;6.78;1.90;;;11.90;91.90;;;;;;5092866;28;20479;-84
2023/03/03 10:37:43;;;;;;;5.80;1.90;;;12.30;90.00;;;;;;5092402;28;20043;-84
2023/03/03 10:40:19;;;;;;;9.57;1.90;;;12.40;85.30;;;;;;5057249;28;20125;-84
2023/03/03 10:43:15;;;;;;;5.55;2.20;;;12.60;82.70;;;;;;5092909;28;20085;-84
2023/03/03 10:46:17;;;;;;;5.05;2.40;;;12.60;78.70;;;;;;5093028;28;20095;-84
2023/03/03 10:48:53;;;;;;;5.88;2.25;;;12.50;75.90;;;;;;5085589;28;20032;-84
2023/03/03 10:51:25;;;;;;;5.22;2.25;;;12.70;75.90;;;;;;5094433;28;20048;-82
2023/03/03 10:54:25;;;;;;;5.32;2.13;;;12.80;73.50;;;;;;5094107;28;20020;-84
2023/03/03 10:56:54;;;;;;;4.72;2.08;;;12.80;72.60;;;;;;5092326;28;20060;-84
2023/03/03 10:59:41;;;;;;;4.25;1.73;;;12.90;73.80;;;;;;5093238;28;20024;-84
2023/03/03 11:02:25;;;;;;;5.35;1.85;;;13.00;73.10;;;;;;5095334;28;20020;-84
2023/03/03 11:05:09;;;;;;;;;;;13.10;71.40;;;;;;5095867;28;20028;-84
2023/03/03 11:07:43;;;;;;;7.53;2.28;;;13.20;69.60;;;;;;5096830;28;19950;-84
2023/03/03 11:10:28;;;;;;;5.97;2.47;;;13.30;70.00;;;;;;5095515;28;20092;-84
2023/03/03 11:13:36;;;;;;;6.13;2.58;;;13.50;69.50;;;;;;5107400;28;20153;-84
2023/03/03 11:16:20;;;;;;;4.05;1.63;;;13.40;65.90;;;;;;5054174;28;20412;-83
2023/03/03 11:19:11;;;;;;;5.80;2.05;;;13.40;67.00;;;;;;5104544;28;20047;-83
2023/03/03 11:22:04;;;;;;;8.02;2.17;;;13.70;67.80;;;;;;5050208;28;20032;-83
2023/03/03 11:24:49;;;;;;;4.57;1.70;;;14.30;68.10;;;;;;5095121;28;20024;-83
2023/03/03 11:27:28;;;;;;;5.38;1.98;;;14.70;66.50;;;;;;5096263;28;20025;-83
2023/03/03 11:30:12;;;;;;;3.78;1.42;;;15.00;64.80;;;;;;5107541;28;20019;-84
2023/03/03 11:32:47;;;;;;;;;;;15.20;63.90;;;;;;5074903;28;20499;-84
2023/03/03 11:35:39;;;;;;;4.60;1.55;;;15.60;64.60;;;;;;5074443;28;19931;-84
2023/03/03 11:38:32;;;;;;;3.03;1.42;;;16.10;64.20;;;;;;5074776;28;20032;-85
2023/03/03 11:41:15;;;;;;;3.90;1.20;;;16.80;64.30;;;;;;5074810;28;20025;-84
2023/03/03 11:44:07;;;;;;;3.15;1.40;;;17.60;63.00;;;;;;5075943;28;20043;-84
2023/03/03 11:46:45;;;;;;;4.22;1.17;;;18.40;62.50;;;;;;5078072;28;20407;-84
2023/03/03 11:49:27;;;;;;;2.22;0.85;;;19.40;60.10;;;;;;5074561;28;20074;-84
2023/03/03 11:52:18;;;;;;;2.25;1.00;;;20.10;58.70;;;;;;5075377;28;20107;-84
2023/03/03 11:54:59;;;;;;;1.67;0.57;;;21.00;56.10;;;;;;5074060;28;20028;-82
2023/03/03 11:57:46;;;;;;;1.67;0.52;;;21.60;54.30;;;;;;5075405;28;20040;-82
2023/03/03 12:00:40;;;;;;;3.00;0.80;;;22.20;52.90;;;;;;5075120;28;20041;-82
2023/03/03 12:03:14;;;;;;;3.28;0.80;;;22.80;49.10;;;;;;5075245;28;20020;-82
2023/03/03 12:06:07;;;;;;;1.50;0.50;;;23.20;48.20;;;;;;5074055;28;20119;-82
2023/03/03 12:09:08;;;;;;;2.40;0.68;;;23.50;46.90;;;;;;5075333;28;20419;-82
2023/03/03 12:11:52;;;;;;;2.42;0.65;;;24.00;45.50;;;;;;5073023;28;20142;-81
2023/03/03 12:14:33;;;;;;;2.40;0.82;;;24.30;44.80;;;;;;5073857;28;20028;-82
2023/03/03 12:17:05;;;;;;;3.58;0.70;;;24.60;44.20;;;;;;5073984;28;20032;-81
2023/03/03 12:19:52;;;;;;;1.67;0.68;;;24.50;43.70;;;;;;5074426;28;20079;-81
2023/03/03 12:22:21;;;;;;;2.75;0.60;;;24.40;41.90;;;;;;5111366;28;20024;-83
2023/03/03 12:25:16;;;;;;;2.58;0.73;;;24.00;41.40;;;;;;5108520;28;20016;-83
2023/03/03 12:28:02;;;;;;;1.85;0.60;;;23.50;41.00;;;;;;5094767;28;20020;-83
2023/03/03 12:30:49;;;;;;;2.58;0.70;;;23.40;40.30;;;;;;5096832;28;20035;-81
2023/03/03 12:33:19;;;;;;;2.13;0.80;;;23.70;40.30;;;;;;5094314;28;20020;-81
2023/03/03 12:36:00;;;;;;;1.67;0.70;;;24.10;39.80;;;;;;5093784;28;20130;-81
2023/03/03 12:38:50;;;;;;;2.90;0.80;;;24.50;39.00;;;;;;5093957;28;20036;-81
2023/03/03 12:41:26;;;;;;;3.40;0.82;;;25.00;38.30;;;;;;5094312;28;20024;-80
2023/03/03 12:44:03;;;;;;;2.88;0.77;;;25.10;38.00;;;;;;5093953;28;20028;-81
2023/03/03 12:47:01;;;;;;;2.05;0.70;;;24.50;37.30;;;;;;5093871;28;20391;-82
2023/03/03 12:49:45;;;;;;;3.10;0.95;;;24.00;37.70;;;;;;5093666;28;20421;-82
2023/03/03 12:52:25;;;;;;;3.38;0.88;;;23.70;36.60;;;;;;5093569;28;20020;-82
2023/03/03 12:55:20;;;;;;;3.35;1.05;;;22.90;36.10;;;;;;5093736;28;20062;-81
2023/03/03 12:58:24;;;;;;;2.25;0.90;;;22.00;37.20;;;;;;5093515;28;20380;-81
2023/03/03 13:01:27;;;;;;;2.53;0.82;;;21.80;38.40;;;;;;5090758;28;20048;-82
2023/03/03 13:03:59;;;;;;;3.10;0.85;;;22.20;38.10;;;;;;5094621;28;20496;-81
2023/03/03 13:06:32;;;;;;;2.30;0.68;;;22.70;38.00;;;;;;5092811;28;20024;-81
2023/03/03 13:09:07;;;;;;;;;;;23.20;37.70;;;;;;5101567;28;20028;-82
2023/03/03 13:11:44;;;;;;;2.38;0.80;;;23.70;37.80;;;;;;5114834;28;19912;-81